Time;durP1;ratioP1;P1;durP2;ratioP2;P2;SDS_P1;SDS_P2;PMS_P1;PMS_P2;Temp;Humidity;BMP_temperature;BMP_pressure;BME280_temperature;BME280_humidity;BME280_pressure;Samples;Min_cycle;Max_cycle;Signal;HPM_P1;HPM_P2
2022/07/19 00:01:58;;;;;;;9.57;7.80;;;16.40;82.70;;;;;;5034746;28;20180;-88
2022/07/19 00:04:24;;;;;;;11.90;7.72;;;16.20;82.60;;;;;;5035193;28;20179;-88
2022/07/19 00:06:49;;;;;;;9.80;7.65;;;16.00;82.80;;;;;;5034612;28;20276;-88
2022/07/19 00:09:15;;;;;;;10.52;8.07;;;15.80;83.10;;;;;;5034722;28;20196;-88
2022/07/19 00:11:41;;;;;;;12.13;7.82;;;15.80;83.30;;;;;;5034715;28;20207;-88
2022/07/19 00:14:06;;;;;;;11.70;7.65;;;15.90;83.30;;;;;;5034928;28;20558;-88
2022/07/19 00:16:32;;;;;;;13.25;9.60;;;15.80;83.30;;;;;;5035649;28;20577;-87
2022/07/19 00:18:57;;;;;;;14.57;11.02;;;15.80;83.40;;;;;;5034197;28;20616;-88
2022/07/19 00:21:23;;;;;;;15.23;11.13;;;15.80;83.90;;;;;;5035207;28;20177;-88
2022/07/19 00:23:49;;;;;;;14.30;10.98;;;15.80;84.00;;;;;;5035382;28;20649;-88
2022/07/19 00:26:14;;;;;;;15.13;9.98;;;15.80;84.00;;;;;;5034427;28;20187;-88
2022/07/19 00:28:40;;;;;;;15.02;10.27;;;15.80;83.90;;;;;;5034477;28;20204;-88
2022/07/19 00:31:05;;;;;;;19.38;10.95;;;15.70;83.60;;;;;;5035707;28;20179;-88
2022/07/19 00:33:31;;;;;;;15.35;11.73;;;15.70;83.60;;;;;;5034806;28;20188;-88
2022/07/19 00:35:56;;;;;;;18.27;11.68;;;15.70;83.90;;;;;;5034525;28;20180;-88
2022/07/19 00:38:22;;;;;;;25.02;13.40;;;15.80;84.20;;;;;;5034569;28;20188;-88
2022/07/19 00:40:47;;;;;;;19.77;13.90;;;15.70;84.70;;;;;;5035114;28;20183;-88
2022/07/19 00:43:13;;;;;;;20.08;13.73;;;15.70;85.20;;;;;;5034917;28;20184;-88
2022/07/19 00:45:39;;;;;;;23.63;14.23;;;15.70;85.90;;;;;;5034354;28;20176;-88
2022/07/19 00:48:05;;;;;;;18.20;13.52;;;15.60;86.10;;;;;;5035307;28;20187;-88
2022/07/19 00:50:31;;;;;;;21.30;13.82;;;15.50;86.30;;;;;;5034000;28;20192;-88
2022/07/19 00:53:02;;;;;;;13.30;11.35;;;15.30;86.60;;;;;;5034469;28;20204;-88
2022/07/19 00:55:29;;;;;;;16.90;11.40;;;15.30;87.00;;;;;;5034182;28;20200;-89
2022/07/19 00:57:56;;;;;;;17.33;12.30;;;15.20;87.20;;;;;;5034823;28;20172;-89
2022/07/19 01:00:23;;;;;;;18.52;11.00;;;15.20;87.20;;;;;;5033658;28;20211;-89
2022/07/19 01:02:51;;;;;;;15.70;11.38;;;15.20;87.20;;;;;;5033970;28;20232;-89
2022/07/19 01:05:17;;;;;;;15.87;10.90;;;15.00;87.30;;;;;;5034023;28;20181;-89
2022/07/19 01:07:43;;;;;;;12.67;10.53;;;14.80;87.50;;;;;;5034446;28;20649;-89
2022/07/19 01:10:12;;;;;;;20.27;12.27;;;14.80;87.70;;;;;;5033538;28;20201;-89
2022/07/19 01:12:38;;;;;;;15.87;11.73;;;14.70;87.90;;;;;;5033682;28;20198;-89
2022/07/19 01:15:13;;;;;;;14.10;11.63;;;14.70;88.10;;;;;;5035136;28;20165;-89
2022/07/19 01:17:39;;;;;;;14.03;11.50;;;14.60;88.20;;;;;;5033713;28;20172;-89
2022/07/19 01:20:05;;;;;;;15.40;11.07;;;14.50;88.30;;;;;;5034074;28;20538;-89
2022/07/19 01:22:31;;;;;;;13.97;9.43;;;14.60;88.60;;;;;;5033838;28;20181;-89
2022/07/19 01:24:56;;;;;;;9.60;8.50;;;14.50;88.60;;;;;;5033653;28;20556;-89
2022/07/19 01:27:22;;;;;;;12.37;9.50;;;14.40;88.60;;;;;;5033502;28;20177;-89
2022/07/19 01:29:47;;;;;;;13.43;11.30;;;14.40;88.70;;;;;;5034563;28;20197;-89
2022/07/19 01:32:13;;;;;;;17.70;11.77;;;14.50;88.80;;;;;;5033796;28;20196;-89
2022/07/19 01:34:38;;;;;;;18.07;12.70;;;14.40;88.80;;;;;;5035571;28;20207;-89
2022/07/19 01:37:04;;;;;;;14.87;12.00;;;14.30;88.80;;;;;;5033593;28;20255;-89
2022/07/19 01:39:30;;;;;;;18.47;11.40;;;14.30;88.80;;;;;;5033532;28;20199;-89
2022/07/19 01:41:55;;;;;;;16.63;13.20;;;14.30;88.70;;;;;;5033784;28;20272;-89
2022/07/19 01:44:21;;;;;;;21.77;13.30;;;14.20;88.70;;;;;;5033433;28;20188;-89
2022/07/19 01:46:46;;;;;;;19.73;12.70;;;14.20;88.90;;;;;;5033929;28;20176;-89
2022/07/19 01:49:12;;;;;;;21.33;12.67;;;14.20;89.10;;;;;;5033286;28;20266;-89
2022/07/19 01:51:37;;;;;;;21.53;12.90;;;14.20;89.10;;;;;;5033396;28;20623;-89
2022/07/19 01:54:03;;;;;;;24.20;12.70;;;14.10;89.20;;;;;;5034267;28;20183;-89
2022/07/19 01:56:29;;;;;;;18.87;12.57;;;14.00;89.20;;;;;;5033370;28;20227;-89
2022/07/19 01:58:54;;;;;;;17.30;12.07;;;14.10;89.20;;;;;;5032938;28;20323;-89
2022/07/19 02:01:20;;;;;;;21.20;11.87;;;14.10;89.20;;;;;;5033128;28;20180;-89
2022/07/19 02:03:45;;;;;;;16.07;11.30;;;14.20;89.20;;;;;;5033905;28;20219;-89
2022/07/19 02:06:11;;;;;;;17.57;11.40;;;14.20;89.10;;;;;;5033138;28;20188;-89
2022/07/19 02:08:37;;;;;;;20.90;12.30;;;14.30;89.00;;;;;;5032951;28;20701;-88
2022/07/19 02:11:34;;;;;;;19.33;10.90;;;14.30;88.90;;;;;;5033004;28;20195;-89
2022/07/19 02:13:49;;;;;;;17.73;9.87;;;14.30;88.80;;;;;;5034568;28;20176;-89
2022/07/19 02:16:14;;;;;;;18.53;10.90;;;14.30;88.60;;;;;;5032710;28;20180;-89
2022/07/19 02:18:40;;;;;;;14.17;9.80;;;14.30;88.30;;;;;;5033750;28;20219;-89
2022/07/19 02:21:05;;;;;;;15.87;9.93;;;14.30;88.30;;;;;;5032585;28;20192;-89
2022/07/19 02:23:31;;;;;;;13.00;9.67;;;14.40;88.10;;;;;;5032857;28;20173;-89
2022/07/19 02:25:57;;;;;;;12.27;9.40;;;14.30;87.50;;;;;;5032850;28;20551;-89
2022/07/19 02:28:22;;;;;;;13.23;9.40;;;14.30;86.80;;;;;;5032541;28;20202;-89
2022/07/19 02:30:48;;;;;;;18.60;10.33;;;14.30;86.30;;;;;;5032494;28;20236;-89
2022/07/19 02:33:13;;;;;;;17.13;9.47;;;14.30;86.00;;;;;;5032388;28;20208;-89
2022/07/19 02:35:39;;;;;;;12.53;10.10;;;14.30;85.80;;;;;;5032884;28;20264;-89
2022/07/19 02:38:05;;;;;;;12.57;10.73;;;14.30;85.50;;;;;;5032858;28;20180;-89
2022/07/19 02:40:30;;;;;;;14.87;9.53;;;14.20;85.80;;;;;;5032874;28;20185;-89
2022/07/19 02:42:56;;;;;;;17.57;10.23;;;14.10;86.10;;;;;;5036815;28;20233;-89
2022/07/19 02:45:21;;;;;;;12.87;11.13;;;14.00;86.60;;;;;;5036628;28;20188;-89
2022/07/19 02:47:47;;;;;;;16.90;11.30;;;14.00;86.90;;;;;;5037756;28;20181;-89
2022/07/19 02:50:13;;;;;;;13.47;10.30;;;14.00;87.00;;;;;;5037069;28;20275;-89
2022/07/19 02:52:38;;;;;;;18.67;11.00;;;13.90;87.00;;;;;;5037041;28;20807;-89
2022/07/19 02:55:05;;;;;;;15.20;11.60;;;14.00;87.20;;;;;;5036763;28;20177;-89
2022/07/19 02:57:30;;;;;;;15.93;10.77;;;13.90;87.20;;;;;;5036388;28;20642;-89
2022/07/19 02:59:56;;;;;;;15.87;10.40;;;13.90;87.30;;;;;;5036824;28;20225;-89
2022/07/19 03:02:21;;;;;;;12.43;9.73;;;13.90;87.30;;;;;;5036449;28;20184;-89
2022/07/19 03:04:47;;;;;;;11.60;9.03;;;13.90;87.20;;;;;;5036667;28;20211;-89
2022/07/19 03:07:13;;;;;;;11.03;8.37;;;13.90;87.10;;;;;;5036993;28;20219;-89
2022/07/19 03:09:39;;;;;;;12.37;9.00;;;14.00;86.90;;;;;;5036675;28;20231;-89
2022/07/19 03:12:04;;;;;;;14.47;8.80;;;14.00;86.50;;;;;;5036323;28;20203;-89
2022/07/19 03:14:30;;;;;;;11.50;8.47;;;14.00;86.10;;;;;;5036509;28;20179;-89
2022/07/19 03:16:56;;;;;;;14.17;10.30;;;13.90;85.80;;;;;;5036339;28;20183;-89
2022/07/19 03:19:21;;;;;;;12.97;9.83;;;13.90;85.70;;;;;;5036389;28;20250;-89
2022/07/19 03:21:48;;;;;;;15.07;10.03;;;13.90;85.80;;;;;;5036280;28;20180;-89
2022/07/19 03:24:13;;;;;;;20.77;10.73;;;14.00;86.00;;;;;;5036847;28;20180;-89
2022/07/19 03:26:39;;;;;;;15.37;10.03;;;14.00;86.50;;;;;;5036524;28;20192;-89
2022/07/19 03:29:04;;;;;;;16.70;10.07;;;14.10;86.90;;;;;;5037427;28;20201;-89
2022/07/19 03:31:30;;;;;;;16.23;9.43;;;14.00;87.00;;;;;;5036659;28;20196;-89
2022/07/19 03:33:55;;;;;;;16.27;10.27;;;14.10;87.30;;;;;;5037486;28;20177;-89
2022/07/19 03:36:21;;;;;;;17.73;10.00;;;14.30;87.40;;;;;;5036706;28;20234;-89
2022/07/19 03:38:47;;;;;;;18.07;9.83;;;14.40;87.20;;;;;;5036526;28;20194;-89
2022/07/19 03:41:12;;;;;;;19.60;10.27;;;14.50;87.00;;;;;;5035590;28;20650;-89
2022/07/19 03:43:38;;;;;;;13.67;9.70;;;14.60;86.70;;;;;;5035809;28;20256;-89
2022/07/19 03:46:04;;;;;;;12.57;9.07;;;14.60;86.10;;;;;;5035814;28;20188;-89
2022/07/19 03:48:29;;;;;;;19.17;9.67;;;14.80;85.90;;;;;;5035635;28;20598;-89
2022/07/19 03:50:55;;;;;;;16.07;9.83;;;14.80;85.50;;;;;;5035958;28;20184;-89
2022/07/19 03:53:21;;;;;;;13.70;9.63;;;14.90;85.20;;;;;;5035187;28;20274;-89
2022/07/19 03:55:47;;;;;;;14.40;9.60;;;14.90;84.90;;;;;;5036316;28;20598;-89
2022/07/19 03:58:13;;;;;;;17.70;10.73;;;15.00;84.90;;;;;;5035808;28;20177;-89
2022/07/19 04:00:39;;;;;;;14.30;10.23;;;15.00;84.80;;;;;;5036806;28;20172;-89
2022/07/19 04:03:04;;;;;;;17.57;9.93;;;15.10;84.80;;;;;;5035972;28;20208;-89
2022/07/19 04:05:30;;;;;;;15.83;9.50;;;15.10;84.80;;;;;;5036079;28;20638;-89
2022/07/19 04:07:55;;;;;;;13.53;9.60;;;15.10;84.80;;;;;;5037512;28;20180;-89
2022/07/19 04:10:21;;;;;;;14.73;8.93;;;15.10;84.60;;;;;;5036353;28;20276;-89
2022/07/19 04:12:47;;;;;;;11.63;9.33;;;15.20;84.70;;;;;;5036094;28;20200;-89
2022/07/19 04:15:13;;;;;;;11.33;9.23;;;15.30;84.70;;;;;;5036493;28;20189;-89
2022/07/19 04:17:38;;;;;;;11.30;8.70;;;15.50;84.10;;;;;;5035987;28;20717;-89
2022/07/19 04:20:05;;;;;;;15.38;9.20;;;15.50;83.60;;;;;;5035569;28;20197;-89
2022/07/19 04:22:30;;;;;;;14.75;9.20;;;15.60;83.40;;;;;;5035717;28;20208;-89
2022/07/19 04:24:56;;;;;;;12.00;8.90;;;15.60;83.20;;;;;;5035319;28;20200;-89
2022/07/19 04:27:21;;;;;;;16.40;9.27;;;15.70;82.90;;;;;;5035320;28;20184;-89
2022/07/19 04:29:47;;;;;;;11.90;9.50;;;15.70;82.90;;;;;;5035131;28;20197;-89
2022/07/19 04:32:14;;;;;;;16.25;9.93;;;15.70;82.80;;;;;;5036128;28;20236;-89
2022/07/19 04:34:39;;;;;;;10.65;8.75;;;15.80;82.90;;;;;;5035097;28;20268;-89
2022/07/19 04:37:05;;;;;;;14.10;10.18;;;15.80;82.90;;;;;;5035318;28;20667;-89
2022/07/19 04:39:31;;;;;;;11.02;9.45;;;15.80;83.00;;;;;;5035522;28;20204;-89
2022/07/19 04:41:56;;;;;;;14.43;10.27;;;15.90;83.10;;;;;;5035319;28;20272;-89
2022/07/19 04:44:22;;;;;;;13.93;10.45;;;15.90;83.50;;;;;;5035963;28;20710;-89
2022/07/19 04:46:47;;;;;;;15.90;11.90;;;15.90;83.50;;;;;;5034786;28;20181;-89
2022/07/19 04:49:13;;;;;;;20.27;13.18;;;15.90;84.40;;;;;;5035287;28;20192;-89
2022/07/19 04:51:38;;;;;;;17.23;13.02;;;15.90;85.30;;;;;;5035207;28;20208;-89
2022/07/19 04:54:04;;;;;;;22.63;13.18;;;15.90;85.90;;;;;;5035585;28;20183;-89
2022/07/19 04:56:29;;;;;;;25.95;13.20;;;15.90;86.50;;;;;;5035621;28;20291;-89
2022/07/19 04:58:55;;;;;;;24.05;12.45;;;15.80;87.20;;;;;;5037154;28;20204;-89
2022/07/19 05:01:21;;;;;;;22.27;13.18;;;15.80;87.80;;;;;;5036918;28;20177;-89
2022/07/19 05:03:46;;;;;;;37.90;13.73;;;15.70;88.30;;;;;;5034628;28;20173;-89
2022/07/19 05:06:12;;;;;;;35.53;13.73;;;15.80;88.60;;;;;;5035077;28;20199;-89
2022/07/19 05:08:37;;;;;;;41.40;13.57;;;15.90;88.90;;;;;;5034873;28;20193;-89
2022/07/19 05:11:03;;;;;;;40.22;13.85;;;16.00;89.00;;;;;;5034456;28;20180;-89
2022/07/19 05:13:28;;;;;;;27.67;14.55;;;16.10;89.30;;;;;;5034475;28;20215;-89
2022/07/19 05:15:54;;;;;;;28.38;14.18;;;16.10;89.40;;;;;;5034243;28;20174;-89
2022/07/19 05:18:19;;;;;;;28.65;14.63;;;16.20;89.60;;;;;;5034144;28;20552;-89
2022/07/19 05:20:45;;;;;;;27.15;16.20;;;16.20;89.60;;;;;;5035561;28;20168;-90
2022/07/19 05:23:10;;;;;;;26.30;14.38;;;16.30;89.60;;;;;;5034330;28;20280;-89
2022/07/19 05:25:36;;;;;;;23.98;14.60;;;16.50;89.70;;;;;;5033720;28;20177;-89
2022/07/19 05:28:02;;;;;;;20.05;15.00;;;16.60;89.80;;;;;;5034882;28;20177;-89
2022/07/19 05:30:27;;;;;;;21.92;14.15;;;16.70;89.90;;;;;;5035478;28;20173;-90
2022/07/19 05:32:53;;;;;;;20.33;15.93;;;16.80;89.90;;;;;;5035226;28;20701;-90
2022/07/19 05:35:18;;;;;;;20.13;15.00;;;17.00;89.90;;;;;;5035089;28;20181;-89
2022/07/19 05:37:44;;;;;;;22.95;15.60;;;17.10;89.90;;;;;;5033983;28;20184;-89
2022/07/19 05:40:10;;;;;;;22.27;14.93;;;17.30;89.80;;;;;;5034156;28;20633;-90
2022/07/19 05:42:35;;;;;;;19.55;14.05;;;17.40;89.70;;;;;;5033680;28;20600;-89
2022/07/19 05:45:02;;;;;;;23.25;14.23;;;17.60;89.70;;;;;;5033321;28;20267;-89
2022/07/19 05:47:27;;;;;;;21.15;13.35;;;17.80;89.70;;;;;;5033359;28;20180;-89
2022/07/19 05:49:53;;;;;;;23.00;14.18;;;17.80;89.70;;;;;;5033515;28;20704;-89
2022/07/19 05:52:18;;;;;;;18.88;12.63;;;18.00;89.70;;;;;;5034862;28;20275;-89
2022/07/19 05:54:44;;;;;;;15.90;12.10;;;18.20;89.70;;;;;;5033652;28;20635;-89
2022/07/19 05:57:09;;;;;;;14.98;11.60;;;18.20;89.10;;;;;;5033097;28;20176;-89
2022/07/19 05:59:35;;;;;;;16.17;11.85;;;18.40;89.10;;;;;;5108563;22;20677;-85
2022/07/19 06:02:04;;;;;;;19.65;12.02;;;18.50;88.40;;;;;;5033479;28;20205;-85
2022/07/19 06:04:29;;;;;;;20.15;12.27;;;18.80;87.90;;;;;;5032333;28;20562;-86
2022/07/19 06:06:55;;;;;;;15.07;11.45;;;18.90;86.90;;;;;;5033493;28;20173;-86
2022/07/19 06:09:20;;;;;;;16.38;11.63;;;19.10;86.20;;;;;;5033653;28;20227;-85
2022/07/19 06:11:46;;;;;;;15.88;11.45;;;19.20;86.00;;;;;;5032087;28;20224;-85
2022/07/19 06:14:12;;;;;;;15.20;10.88;;;19.30;85.50;;;;;;5032109;28;20180;-86
2022/07/19 06:16:40;;;;;;;13.88;9.75;;;19.50;85.10;;;;;;5031261;28;20177;-86
2022/07/19 06:19:05;;;;;;;14.65;10.90;;;19.60;85.00;;;;;;5031987;28;20174;-86
2022/07/19 06:21:31;;;;;;;17.98;10.65;;;19.70;84.60;;;;;;5032054;28;20534;-86
2022/07/19 06:23:57;;;;;;;13.93;10.70;;;19.70;82.90;;;;;;5033207;28;20222;-86
2022/07/19 06:26:23;;;;;;;13.52;9.60;;;19.90;81.90;;;;;;5032001;28;20226;-86
2022/07/19 06:28:48;;;;;;;15.43;10.40;;;19.90;81.30;;;;;;5033154;28;20172;-86
2022/07/19 06:31:14;;;;;;;14.30;11.00;;;20.00;81.10;;;;;;5031776;28;20236;-85
2022/07/19 06:33:45;;;;;;;14.07;10.30;;;20.10;80.20;;;;;;5033424;28;20176;-86
2022/07/19 06:36:11;;;;;;;10.65;8.77;;;20.20;80.10;;;;;;5032136;28;20667;-86
2022/07/19 06:38:37;;;;;;;15.32;9.48;;;20.30;78.60;;;;;;5033085;28;20260;-86
2022/07/19 06:41:03;;;;;;;13.18;9.73;;;20.30;78.10;;;;;;5031876;28;20279;-86
2022/07/19 06:43:29;;;;;;;16.30;9.25;;;20.40;78.30;;;;;;5033153;28;20177;-87
2022/07/19 06:45:55;;;;;;;17.15;9.75;;;20.40;77.60;;;;;;5031779;28;20177;-86
2022/07/19 06:48:21;;;;;;;10.35;8.98;;;20.60;77.50;;;;;;5031715;28;20184;-86
2022/07/19 06:50:46;;;;;;;12.40;8.65;;;20.70;77.10;;;;;;5031706;28;20245;-86
2022/07/19 06:53:12;;;;;;;13.82;9.02;;;20.80;77.90;;;;;;5032955;28;20273;-86
2022/07/19 06:55:38;;;;;;;10.40;8.10;;;21.00;77.40;;;;;;5031687;28;20169;-86
2022/07/19 06:58:03;;;;;;;9.60;8.40;;;21.10;76.90;;;;;;5032900;28;20175;-86
2022/07/19 07:00:29;;;;;;;12.50;8.63;;;21.20;75.50;;;;;;5031619;28;20218;-86
2022/07/19 07:02:55;;;;;;;11.15;8.38;;;21.30;75.20;;;;;;5032827;28;20173;-86
2022/07/19 07:05:20;;;;;;;11.45;7.90;;;21.40;75.70;;;;;;5033119;28;20185;-86
2022/07/19 07:07:47;;;;;;;12.32;8.55;;;21.60;75.00;;;;;;5032877;28;20734;-86
2022/07/19 07:10:13;;;;;;;12.13;7.43;;;21.60;74.60;;;;;;5031534;28;20211;-86
2022/07/19 07:12:39;;;;;;;12.57;7.43;;;21.70;74.40;;;;;;5032657;28;20197;-86
2022/07/19 07:15:06;;;;;;;8.52;7.55;;;21.80;71.90;;;;;;5033216;28;20180;-86
2022/07/19 07:17:31;;;;;;;11.82;7.88;;;21.90;72.70;;;;;;5031599;28;20183;-86
2022/07/19 07:19:57;;;;;;;12.95;7.80;;;22.00;71.80;;;;;;5031479;28;20271;-86
2022/07/19 07:22:22;;;;;;;10.27;8.05;;;22.20;71.30;;;;;;5031880;28;20184;-86
2022/07/19 07:24:48;;;;;;;9.68;6.95;;;22.30;70.80;;;;;;5031462;28;20173;-86
2022/07/19 07:27:14;;;;;;;13.48;7.70;;;22.50;71.40;;;;;;5032378;28;20243;-86
2022/07/19 07:29:39;;;;;;;11.85;7.60;;;22.60;69.80;;;;;;5035185;28;20683;-87
2022/07/19 07:32:05;;;;;;;9.32;7.35;;;22.70;69.50;;;;;;5035100;28;20550;-86
2022/07/19 07:34:31;;;;;;;14.68;7.32;;;22.70;69.60;;;;;;5036416;28;20246;-86
2022/07/19 07:36:56;;;;;;;10.15;6.93;;;23.00;69.00;;;;;;5036429;28;20176;-86
2022/07/19 07:39:23;;;;;;;13.35;7.90;;;23.10;69.80;;;;;;5035105;28;20200;-87
2022/07/19 07:41:48;;;;;;;10.55;7.13;;;23.20;67.60;;;;;;5035024;28;20177;-87
2022/07/19 07:44:14;;;;;;;9.63;6.72;;;23.30;65.80;;;;;;5034976;28;20581;-86
2022/07/19 07:46:40;;;;;;;8.85;6.88;;;23.50;67.30;;;;;;5036446;28;20231;-87
2022/07/19 07:49:05;;;;;;;8.77;6.70;;;23.70;68.40;;;;;;5036297;28;20589;-86
2022/07/19 07:51:31;;;;;;;8.50;7.47;;;23.80;68.30;;;;;;5034752;28;20187;-87
2022/07/19 07:53:59;;;;;;;12.00;7.03;;;23.90;67.00;;;;;;5034828;28;20172;-87
2022/07/19 07:56:25;;;;;;;9.77;6.88;;;24.00;67.50;;;;;;5034788;28;20235;-87
2022/07/19 07:58:51;;;;;;;9.43;6.88;;;24.10;66.30;;;;;;5034819;28;20176;-87
2022/07/19 08:01:16;;;;;;;12.73;6.80;;;24.20;66.50;;;;;;5034495;28;20209;-87
2022/07/19 08:03:42;;;;;;;12.25;6.13;;;24.30;64.60;;;;;;5034666;28;20204;-87
2022/07/19 08:06:08;;;;;;;10.82;6.53;;;24.30;63.30;;;;;;5034509;28;20172;-87
2022/07/19 08:08:33;;;;;;;6.45;5.82;;;24.40;61.80;;;;;;5035835;28;20204;-87
2022/07/19 08:10:59;;;;;;;14.88;6.47;;;24.60;63.30;;;;;;5034468;28;20188;-87
2022/07/19 08:13:24;;;;;;;10.35;6.13;;;24.70;61.80;;;;;;5035700;28;20199;-87
2022/07/19 08:15:50;;;;;;;9.20;6.05;;;24.80;61.90;;;;;;5035672;28;20639;-87
2022/07/19 08:18:17;;;;;;;8.50;5.47;;;24.90;59.30;;;;;;5035545;28;20180;-87
2022/07/19 08:20:43;;;;;;;7.07;5.57;;;25.00;58.00;;;;;;5034259;28;20547;-87
2022/07/19 08:23:09;;;;;;;8.90;5.82;;;25.10;59.00;;;;;;5034798;28;20172;-87
2022/07/19 08:25:34;;;;;;;8.60;6.18;;;25.20;57.20;;;;;;5034869;28;20180;-87
2022/07/19 08:28:01;;;;;;;12.65;6.10;;;25.30;58.70;;;;;;5034204;28;20181;-86
2022/07/19 08:30:27;;;;;;;10.40;5.50;;;25.50;56.50;;;;;;5034162;28;20201;-87
2022/07/19 08:32:52;;;;;;;10.13;5.70;;;25.70;55.70;;;;;;5033943;28;20288;-86
2022/07/19 08:35:18;;;;;;;6.30;5.60;;;25.80;55.00;;;;;;5033803;28;20616;-83
2022/07/19 08:37:44;;;;;;;11.32;5.68;;;25.90;53.70;;;;;;5033951;28;20173;-83
2022/07/19 08:40:10;;;;;;;7.18;5.47;;;26.00;53.10;;;;;;5034220;28;20553;-83
2022/07/19 08:42:36;;;;;;;8.15;5.30;;;26.20;54.20;;;;;;5033818;28;20184;-84
2022/07/19 08:45:05;;;;;;;9.65;5.40;;;26.20;50.90;;;;;;5034985;28;20199;-83
2022/07/19 08:47:31;;;;;;;10.80;5.47;;;26.30;50.60;;;;;;5035872;28;20204;-83
2022/07/19 08:49:59;;;;;;;8.32;5.15;;;26.40;50.70;;;;;;5034838;28;20204;-83
2022/07/19 08:52:25;;;;;;;10.57;5.55;;;26.50;49.80;;;;;;5034822;28;20197;-83
2022/07/19 08:54:51;;;;;;;6.15;4.95;;;26.60;49.00;;;;;;5033498;28;20196;-83
2022/07/19 09:00:03;;;;;;;11.80;5.38;;;26.80;48.70;;;;;;5034949;28;20629;-83
2022/07/19 09:02:28;;;;;;;7.78;4.60;;;27.00;46.20;;;;;;5034615;28;20168;-83
2022/07/19 09:05:01;;;;;;;8.13;4.90;;;27.20;45.10;;;;;;5033316;28;20188;-83
2022/07/19 09:07:28;;;;;;;6.35;4.40;;;27.20;44.50;;;;;;5034835;28;20177;-84
2022/07/19 09:10:17;;;;;;;11.27;5.15;;;27.40;45.00;;;;;;5033219;28;20287;-84
2022/07/19 09:12:58;;;;;;;9.18;4.40;;;27.60;44.50;;;;;;5034370;28;20195;-84
2022/07/19 09:15:45;;;;;;;6.25;4.85;;;27.80;43.90;;;;;;5033116;28;20168;-83
2022/07/19 09:18:23;;;;;;;12.10;5.25;;;27.90;44.70;;;;;;5033009;28;20177;-84
2022/07/19 09:20:52;;;;;;;8.75;4.07;;;27.90;43.40;;;;;;5034478;28;20219;-84
2022/07/19 09:23:18;;;;;;;8.38;4.10;;;27.90;44.10;;;;;;5032990;28;20187;-83
2022/07/19 09:25:48;;;;;;;7.85;4.75;;;28.10;43.60;;;;;;5032866;28;20549;-83
2022/07/19 09:28:15;;;;;;;7.32;4.40;;;28.20;43.10;;;;;;5034148;28;20169;-84
2022/07/19 09:30:43;;;;;;;9.40;4.03;;;28.30;43.60;;;;;;5032728;28;20611;-83
2022/07/19 09:33:11;;;;;;;7.63;4.18;;;28.50;43.00;;;;;;5032706;28;20192;-84
2022/07/19 09:35:40;;;;;;;7.45;4.50;;;28.40;42.10;;;;;;5034214;28;20635;-84
2022/07/19 09:38:29;;;;;;;5.63;4.38;;;28.40;43.10;;;;;;5033889;28;20258;-84
2022/07/19 09:41:08;;;;;;;6.10;4.03;;;28.60;42.90;;;;;;5034246;28;20197;-84
2022/07/19 09:43:53;;;;;;;6.55;4.03;;;28.70;42.10;;;;;;5032686;28;20180;-83
2022/07/19 09:46:42;;;;;;;7.28;4.20;;;28.70;43.50;;;;;;5032606;28;20187;-84
2022/07/19 09:49:12;;;;;;;9.45;3.72;;;28.60;42.00;;;;;;5033678;28;20149;-84
2022/07/19 09:51:43;;;;;;;12.10;4.13;;;28.80;39.70;;;;;;5033581;28;20195;-83
2022/07/19 09:54:11;;;;;;;5.93;4.10;;;28.90;41.00;;;;;;5034042;28;20240;-83
2022/07/19 09:56:39;;;;;;;8.20;3.92;;;29.10;42.10;;;;;;5032442;28;20187;-83
2022/07/19 09:59:05;;;;;;;4.95;3.78;;;29.00;41.10;;;;;;5033750;28;20180;-83
2022/07/19 10:01:32;;;;;;;7.93;5.60;;;28.90;41.40;;;;;;5033881;28;20149;-83
2022/07/19 10:04:10;;;;;;;5.53;4.88;;;29.00;40.50;;;;;;5033517;28;20165;-83
2022/07/19 10:06:37;;;;;;;9.60;4.68;;;29.10;43.80;;;;;;5033870;28;20246;-84
2022/07/19 10:09:05;;;;;;;8.07;5.18;;;29.10;41.70;;;;;;5032300;28;20181;-83
2022/07/19 10:11:31;;;;;;;6.18;4.13;;;29.20;43.60;;;;;;5032119;28;20169;-83
2022/07/19 10:13:57;;;;;;;11.05;4.55;;;29.10;42.80;;;;;;5032181;28;20204;-83
2022/07/19 10:16:41;;;;;;;11.93;4.82;;;28.90;42.90;;;;;;5033429;28;20223;-87
2022/07/19 10:19:18;;;;;;;6.28;4.72;;;29.20;45.20;;;;;;5033140;28;20238;-84
2022/07/19 10:21:46;;;;;;;6.82;5.03;;;29.40;44.20;;;;;;5032281;28;20172;-84
2022/07/19 10:24:12;;;;;;;7.82;4.88;;;29.60;44.50;;;;;;5033363;28;20180;-84
2022/07/19 10:26:40;;;;;;;9.38;4.70;;;29.50;43.80;;;;;;5033230;28;20605;-84
2022/07/19 10:29:15;;;;;;;9.32;4.90;;;29.50;45.60;;;;;;5033040;28;20185;-84
2022/07/19 10:31:42;;;;;;;7.75;5.03;;;29.70;42.80;;;;;;5031921;28;20199;-84
2022/07/19 10:34:11;;;;;;;5.20;4.40;;;29.70;44.10;;;;;;5031792;28;20202;-84
2022/07/19 10:36:44;;;;;;;11.88;4.85;;;29.40;43.90;;;;;;5031787;28;20176;-84
2022/07/19 10:39:27;;;;;;;8.43;4.63;;;29.70;44.40;;;;;;5031675;28;20539;-84
2022/07/19 10:42:13;;;;;;;6.72;4.80;;;29.80;42.90;;;;;;5032561;28;20529;-84
2022/07/19 10:44:57;;;;;;;5.57;4.40;;;29.90;42.50;;;;;;5033227;28;20157;-83
2022/07/19 10:47:32;;;;;;;10.35;5.22;;;29.80;43.10;;;;;;5032892;28;20173;-83
2022/07/19 10:50:02;;;;;;;8.70;4.90;;;30.30;43.20;;;;;;5031765;28;20223;-83
2022/07/19 10:52:27;;;;;;;7.55;5.00;;;30.40;43.10;;;;;;5031496;28;20196;-84
2022/07/19 10:55:24;;;;;;;6.30;4.72;;;30.30;41.90;;;;;;5031594;28;20179;-84
2022/07/19 10:57:52;;;;;;;7.63;6.40;;;30.40;41.60;;;;;;5031820;28;20261;-83
2022/07/19 11:00:29;;;;;;;7.93;5.03;;;30.40;43.70;;;;;;5032709;28;20712;-83
2022/07/19 11:03:22;;;;;;;8.38;4.70;;;30.60;40.40;;;;;;5035069;28;20165;-83
2022/07/19 11:05:57;;;;;;;7.40;4.80;;;30.90;42.30;;;;;;5037012;28;20177;-83
2022/07/19 11:08:38;;;;;;;8.50;4.47;;;30.90;41.80;;;;;;5036768;28;20180;-84
2022/07/19 11:11:12;;;;;;;8.63;4.72;;;31.20;42.10;;;;;;5036695;28;20200;-84
2022/07/19 11:13:40;;;;;;;10.05;4.30;;;31.50;40.90;;;;;;5036849;28;20666;-83
2022/07/19 11:16:05;;;;;;;6.50;4.35;;;31.70;40.10;;;;;;5036889;28;20600;-84
2022/07/19 11:18:32;;;;;;;5.72;4.47;;;31.60;40.60;;;;;;5036567;28;20256;-84
2022/07/19 11:21:05;;;;;;;7.47;3.58;;;31.70;37.50;;;;;;5036464;28;20225;-84
2022/07/19 11:23:36;;;;;;;12.75;4.28;;;31.80;39.50;;;;;;5036597;28;20207;-83
2022/07/19 11:26:13;;;;;;;5.93;4.10;;;31.50;39.10;;;;;;5036738;28;20169;-84
2022/07/19 11:28:41;;;;;;;6.82;4.30;;;31.30;38.90;;;;;;5036742;28;20573;-84
2022/07/19 11:31:16;;;;;;;10.25;4.22;;;31.10;40.40;;;;;;5036240;28;20564;-84
2022/07/19 11:33:44;;;;;;;6.55;4.10;;;31.50;41.80;;;;;;5036439;28;20188;-83
2022/07/19 11:36:10;;;;;;;6.75;3.22;;;31.80;38.40;;;;;;5036655;28;20215;-84
2022/07/19 11:38:39;;;;;;;6.32;3.80;;;31.80;38.00;;;;;;5034993;28;20585;-84
2022/07/19 11:41:18;;;;;;;8.15;4.38;;;31.90;37.30;;;;;;5035277;28;20197;-83
2022/07/19 11:44:04;;;;;;;12.38;3.75;;;32.20;36.80;;;;;;5034957;28;20165;-84
2022/07/19 11:46:34;;;;;;;6.72;3.72;;;32.00;35.80;;;;;;5035565;28;20678;-84
2022/07/19 11:49:01;;;;;;;7.47;3.60;;;32.10;36.50;;;;;;5036025;28;20162;-83
2022/07/19 11:51:28;;;;;;;4.85;3.15;;;32.20;37.00;;;;;;5035951;28;20185;-84
2022/07/19 11:53:57;;;;;;;5.15;3.47;;;32.20;36.50;;;;;;5036006;28;20198;-84
2022/07/19 11:56:25;;;;;;;8.60;3.70;;;32.30;36.90;;;;;;5034701;28;20263;-83
2022/07/19 11:58:52;;;;;;;4.90;3.60;;;32.70;36.20;;;;;;5035840;28;20173;-84
2022/07/19 12:01:28;;;;;;;4.78;3.85;;;32.40;37.10;;;;;;5035759;28;20200;-84
2022/07/19 12:04:03;;;;;;;5.18;3.33;;;32.30;36.40;;;;;;5035795;28;20542;-84
2022/07/19 12:06:37;;;;;;;5.15;3.70;;;32.70;34.90;;;;;;5035614;28;20172;-84
2022/07/19 12:09:08;;;;;;;4.32;3.08;;;32.90;34.70;;;;;;5035652;28;20165;-84
2022/07/19 12:11:42;;;;;;;6.63;3.10;;;32.90;35.20;;;;;;5035823;28;20624;-84
2022/07/19 12:14:27;;;;;;;4.88;3.40;;;32.60;34.70;;;;;;5034108;28;20300;-84
2022/07/19 12:17:18;;;;;;;6.85;2.80;;;32.60;33.30;;;;;;5035453;28;20145;-84
2022/07/19 12:20:06;;;;;;;5.53;3.67;;;32.50;35.80;;;;;;5034120;28;20596;-84
2022/07/19 12:22:36;;;;;;;8.38;3.28;;;32.70;33.90;;;;;;5035652;28;20661;-85
2022/07/19 12:25:04;;;;;;;4.15;2.78;;;33.30;32.90;;;;;;5035290;28;20201;-83
2022/07/19 12:27:30;;;;;;;7.70;2.90;;;33.60;31.90;;;;;;5034078;28;20594;-83
2022/07/19 12:29:58;;;;;;;5.00;3.35;;;33.60;31.70;;;;;;5035166;28;20255;-84
2022/07/19 12:32:31;;;;;;;7.60;3.47;;;33.50;33.40;;;;;;5035270;28;20271;-83
2022/07/19 12:35:01;;;;;;;3.50;2.95;;;33.50;34.40;;;;;;5033842;28;20630;-84
2022/07/19 12:37:41;;;;;;;13.80;6.70;;;33.50;33.00;;;;;;5033795;28;20173;-84
2022/07/19 12:40:23;;;;;;;5.60;4.22;;;33.30;32.50;;;;;;5035340;28;20192;-85
2022/07/19 12:43:02;;;;;;;5.35;3.05;;;33.40;33.00;;;;;;5033744;28;20177;-84